^^
Grace C. Lehan Memorial Weather Station Historical Data
Daily Summary for March 24, 2021 Units:  Both    English   Metric
Daily Weekly Monthly Yearly
  High: Low: Average:
Temperature: 71.9 °F /  22.2 °C 54.6 °F /  12.6 °C 63.4 °F /  17.4 °C
Dew Point: 51.1 °F /  10.6 °C 45.6 °F /  7.6 °C 48 °F /  8.9 °C
Humidity: 72% 41.2% 58%
Wind Speed: 2mph /  3.2km/h - 0.4mph /  0.6km/h
Wind Gust: 11mph /  17.7km/h - -
Wind- - SW
Pressure: 30.28 in /  1025.3 hPa 30.07 in /  1018.2 hPa -
Precipitation: 0.00 in /  0 mm    
 
 
Tabular Data for March 24, 2021
Time Temperature Dew Point Pressure Wind Wind Speed Wind Gust Humidity Rainfall Rate (Hourly) solar
00:00 62.8 °F /  17.1 °C 47.8 °F /  8.8 °C 30.07in /  1018.2hPa Calm   11mph /  17.7km/h 58% 0.00in /  0mm 0 W/m2
00:09 62.6 °F /  17 °C 48.1 °F /  8.9 °C 30.07in /  1018.2hPa NNE 0.2mph /  0.3km/h 6mph /  9.7km/h 59% 0.00in /  0mm 0 W/m2
00:14 62.5 °F /  16.9 °C 48 °F /  8.9 °C 30.08in /  1018.5hPa North 0.2mph /  0.3km/h 6mph /  9.7km/h 59.1% 0.00in /  0mm 0 W/m2
00:19 62.3 °F /  16.8 °C 47.9 °F /  8.8 °C 30.08in /  1018.5hPa ENE 0.1mph /  0.2km/h 6mph /  9.7km/h 59.1% 0.00in /  0mm 0 W/m2
00:24 62.2 °F /  16.8 °C 48.2 °F /  9 °C 30.08in /  1018.5hPa Calm   6mph /  9.7km/h 60% 0.00in /  0mm 0 W/m2
00:29 62.1 °F /  16.7 °C 48.1 °F /  8.9 °C 30.08in /  1018.5hPa North 0.9mph /  1.4km/h 6mph /  9.7km/h 60% 0.00in /  0mm 0 W/m2
00:34 62 °F /  16.7 °C 48 °F /  8.9 °C 30.08in /  1018.5hPa NNW 0.1mph /  0.2km/h 6mph /  9.7km/h 60% 0.00in /  0mm 0 W/m2
00:39 61.9 °F /  16.6 °C 48.1 °F /  8.9 °C 30.09in /  1018.8hPa NNW 0.4mph /  0.6km/h 3mph /  4.8km/h 60.6% 0.00in /  0mm 0 W/m2
00:44 61.7 °F /  16.5 °C 48.5 °F /  9.2 °C 30.09in /  1018.8hPa NNW 0.7mph /  1.1km/h 4mph /  6.4km/h 61.7% 0.00in /  0mm 0 W/m2
00:49 61.6 °F /  16.4 °C 48.9 °F /  9.4 °C 30.09in /  1018.8hPa Calm   4mph /  6.4km/h 62.9% 0.00in /  0mm 0 W/m2
00:54 61.4 °F /  16.3 °C 49 °F /  9.4 °C 30.10in /  1019.2hPa NNW 0.3mph /  0.5km/h 4mph /  6.4km/h 63.6% 0.00in /  0mm 0 W/m2
00:59 61.3 °F /  16.3 °C 49.4 °F /  9.7 °C 30.10in /  1019.2hPa NNW 0.7mph /  1.1km/h 4mph /  6.4km/h 65% 0.00in /  0mm 0 W/m2
01:04 61.1 °F /  16.2 °C 49.2 °F /  9.6 °C 30.10in /  1019.2hPa NNW 0.5mph /  0.8km/h 4mph /  6.4km/h 65% 0.00in /  0mm 0 W/m2
01:09 60.9 °F /  16.1 °C 49.5 °F /  9.7 °C 30.10in /  1019.2hPa NNW 0.3mph /  0.5km/h 4mph /  6.4km/h 66% 0.00in /  0mm 0 W/m2
01:14 60.8 °F /  16 °C 49.3 °F /  9.6 °C 30.10in /  1019.2hPa NNW 0.5mph /  0.8km/h 6mph /  9.7km/h 66% 0.00in /  0mm 0 W/m2
01:19 60.7 °F /  15.9 °C 49.2 °F /  9.6 °C 30.10in /  1019.2hPa NNW 0.3mph /  0.5km/h 6mph /  9.7km/h 66% 0.00in /  0mm 0 W/m2
01:24 60.5 °F /  15.8 °C 49.1 °F /  9.5 °C 30.10in /  1019.2hPa NNW 0.9mph /  1.4km/h 6mph /  9.7km/h 66% 0.00in /  0mm 0 W/m2
01:29 60.4 °F /  15.8 °C 49 °F /  9.4 °C 30.10in /  1019.2hPa Calm   6mph /  9.7km/h 66% 0.00in /  0mm 0 W/m2
01:34 60.4 °F /  15.8 °C 49 °F /  9.4 °C 30.10in /  1019.2hPa North 0.1mph /  0.2km/h 6mph /  9.7km/h 66% 0.00in /  0mm 0 W/m2
01:39 60.2 °F /  15.7 °C 48.9 °F /  9.4 °C 30.10in /  1019.2hPa NNW 0.4mph /  0.6km/h 4mph /  6.4km/h 66% 0.00in /  0mm 0 W/m2
01:44 60.1 °F /  15.6 °C 48.8 °F /  9.3 °C 30.10in /  1019.2hPa Calm   4mph /  6.4km/h 66.1% 0.00in /  0mm 0 W/m2
01:49 60 °F /  15.6 °C 48.7 °F /  9.3 °C 30.10in /  1019.2hPa NNW 0.3mph /  0.5km/h 5mph /  8km/h 66.1% 0.00in /  0mm 0 W/m2
01:54 59.9 °F /  15.5 °C 48.6 °F /  9.2 °C 30.10in /  1019.2hPa Calm   5mph /  8km/h 66.1% 0.00in /  0mm 0 W/m2
01:59 59.8 °F /  15.4 °C 48.7 °F /  9.3 °C 30.11in /  1019.5hPa NNW 0.7mph /  1.1km/h 5mph /  8km/h 66.8% 0.00in /  0mm 0 W/m2
02:04 59.6 °F /  15.3 °C 48.4 °F /  9.1 °C 30.11in /  1019.5hPa NNW 1mph /  1.6km/h 9mph /  14.5km/h 66.2% 0.00in /  0mm 0 W/m2
02:09 59.5 °F /  15.3 °C 48.2 °F /  9 °C 30.11in /  1019.5hPa NE 0.5mph /  0.8km/h 9mph /  14.5km/h 66% 0.00in /  0mm 0 W/m2
02:14 59.4 °F /  15.2 °C 48.1 °F /  8.9 °C 30.11in /  1019.5hPa NNW 0.7mph /  1.1km/h 9mph /  14.5km/h 66% 0.00in /  0mm 0 W/m2
02:19 59.3 °F /  15.2 °C 48 °F /  8.9 °C 30.12in /  1019.9hPa North 0.2mph /  0.3km/h 9mph /  14.5km/h 66% 0.00in /  0mm 0 W/m2
02:24 59.3 °F /  15.2 °C 47.9 °F /  8.8 °C 30.12in /  1019.9hPa North 0.5mph /  0.8km/h 9mph /  14.5km/h 66% 0.00in /  0mm 0 W/m2
02:29 59.1 °F /  15.1 °C 47.4 °F /  8.6 °C 30.12in /  1019.9hPa NNW 0.9mph /  1.4km/h 9mph /  14.5km/h 65.1% 0.00in /  0mm 0 W/m2
02:34 59.1 °F /  15.1 °C 47.5 °F /  8.6 °C 30.12in /  1019.9hPa North 1.5mph /  2.4km/h 9mph /  14.5km/h 65.3% 0.00in /  0mm 0 W/m2
02:39 59 °F /  15 °C 47.3 °F /  8.5 °C 30.12in /  1019.9hPa North 0.6mph /  1km/h 5mph /  8km/h 65% 0.00in /  0mm 0 W/m2
02:44 59 °F /  15 °C 47.4 °F /  8.6 °C 30.12in /  1019.9hPa North 0.4mph /  0.6km/h 5mph /  8km/h 65.3% 0.00in /  0mm 0 W/m2
02:49 58.9 °F /  14.9 °C 47.6 °F /  8.7 °C 30.12in /  1019.9hPa NNE 0.2mph /  0.3km/h 5mph /  8km/h 66% 0.00in /  0mm 0 W/m2
02:54 58.8 °F /  14.9 °C 47.4 °F /  8.6 °C 30.12in /  1019.9hPa NNE 0.2mph /  0.3km/h 5mph /  8km/h 66% 0.00in /  0mm 0 W/m2
02:59 58.6 °F /  14.8 °C 47.3 °F /  8.5 °C 30.13in /  1020.2hPa NW 0.7mph /  1.1km/h 5mph /  8km/h 66% 0.00in /  0mm 0 W/m2
03:04 58.5 °F /  14.7 °C 47.2 °F /  8.4 °C 30.13in /  1020.2hPa NNW 1.1mph /  1.8km/h 5mph /  8km/h 66% 0.00in /  0mm 0 W/m2
03:09 58.3 °F /  14.6 °C 47 °F /  8.3 °C 30.13in /  1020.2hPa NNW 0.3mph /  0.5km/h 5mph /  8km/h 66% 0.00in /  0mm 0 W/m2
03:14 58.2 °F /  14.6 °C 46.9 °F /  8.3 °C 30.13in /  1020.2hPa NNW 0.9mph /  1.4km/h 6mph /  9.7km/h 66% 0.00in /  0mm 0 W/m2
03:19 58.1 °F /  14.5 °C 47 °F /  8.3 °C 30.13in /  1020.2hPa NW 0.1mph /  0.2km/h 6mph /  9.7km/h 66.5% 0.00in /  0mm 0 W/m2
03:24 57.9 °F /  14.4 °C 46.8 °F /  8.2 °C 30.14in /  1020.5hPa North 0.4mph /  0.6km/h 6mph /  9.7km/h 66.5% 0.00in /  0mm 0 W/m2
03:29 57.8 °F /  14.3 °C 46.8 °F /  8.2 °C 30.14in /  1020.5hPa NE 0.2mph /  0.3km/h 6mph /  9.7km/h 66.8% 0.00in /  0mm 0 W/m2
03:34 57.7 °F /  14.3 °C 46.7 °F /  8.2 °C 30.14in /  1020.5hPa NNW 0.2mph /  0.3km/h 6mph /  9.7km/h 66.7% 0.00in /  0mm 0 W/m2
03:39 57.6 °F /  14.2 °C 46.7 °F /  8.2 °C 30.15in /  1020.9hPa NNW 0.3mph /  0.5km/h 6mph /  9.7km/h 67% 0.00in /  0mm 0 W/m2
03:44 57.4 °F /  14.1 °C 46.6 °F /  8.1 °C 30.15in /  1020.9hPa NNW 0.2mph /  0.3km/h 6mph /  9.7km/h 67% 0.00in /  0mm 0 W/m2
03:49 57.3 °F /  14.1 °C 46.4 °F /  8 °C 30.15in /  1020.9hPa NNW 0.1mph /  0.2km/h 6mph /  9.7km/h 67% 0.00in /  0mm 0 W/m2
03:54 57.1 °F /  13.9 °C 46.4 °F /  8 °C 30.15in /  1020.9hPa NNW 0.1mph /  0.2km/h 6mph /  9.7km/h 67.4% 0.00in /  0mm 0 W/m2
03:59 57 °F /  13.9 °C 46.4 °F /  8 °C 30.15in /  1020.9hPa Calm   6mph /  9.7km/h 67.7% 0.00in /  0mm 0 W/m2
04:00 56.9 °F /  13.8 °C 46.5 °F /  8.1 °C 30.15in /  1020.9hPa Calm   6mph /  9.7km/h 68% 0.00in /  0mm 0 W/m2
04:09 56.7 °F /  13.7 °C 46.2 °F /  7.9 °C 30.15in /  1020.9hPa North 0.1mph /  0.2km/h 2mph /  3.2km/h 68% 0.00in /  0mm 0 W/m2
04:14 56.6 °F /  13.7 °C 46.4 °F /  8 °C 30.15in /  1020.9hPa North 0.1mph /  0.2km/h 2mph /  3.2km/h 68.8% 0.00in /  0mm 0 W/m2
04:19 56.4 °F /  13.6 °C 46.3 °F /  7.9 °C 30.15in /  1020.9hPa North 0.1mph /  0.2km/h 2mph /  3.2km/h 69% 0.00in /  0mm 0 W/m2
04:24 56.2 °F /  13.4 °C 46.3 °F /  7.9 °C 30.16in /  1021.2hPa Calm   2mph /  3.2km/h 69.4% 0.00in /  0mm 0 W/m2
04:29 56 °F /  13.3 °C 46.4 °F /  8 °C 30.16in /  1021.2hPa North 0.5mph /  0.8km/h 3mph /  4.8km/h 70% 0.00in /  0mm 0 W/m2
04:34 55.9 °F /  13.3 °C 46.3 °F /  7.9 °C 30.16in /  1021.2hPa Calm   3mph /  4.8km/h 70% 0.00in /  0mm 0 W/m2
04:39 55.7 °F /  13.2 °C 46.2 °F /  7.9 °C 30.16in /  1021.2hPa Calm   1mph /  1.6km/h 70.3% 0.00in /  0mm 0 W/m2
04:44 55.6 °F /  13.1 °C 46.4 °F /  8 °C 30.16in /  1021.2hPa Calm   1mph /  1.6km/h 71% 0.00in /  0mm 0 W/m2
04:49 55.5 °F /  13.1 °C 46.3 °F /  7.9 °C 30.16in /  1021.2hPa North 0.1mph /  0.2km/h 2mph /  3.2km/h 71% 0.00in /  0mm 0 W/m2
04:54 55.4 °F /  13 °C 46.2 °F /  7.9 °C 30.16in /  1021.2hPa Calm   2mph /  3.2km/h 71% 0.00in /  0mm 0 W/m2
04:59 55.3 °F /  12.9 °C 46.1 °F /  7.8 °C 30.17in /  1021.6hPa Calm   2mph /  3.2km/h 71% 0.00in /  0mm 0 W/m2
05:04 55.3 °F /  12.9 °C 46.1 °F /  7.8 °C 30.17in /  1021.6hPa Calm   2mph /  3.2km/h 71% 0.00in /  0mm 0 W/m2
05:09 55.2 °F /  12.9 °C 45.9 °F /  7.7 °C 30.17in /  1021.6hPa Calm     71% 0.00in /  0mm 0 W/m2
05:14 55.1 °F /  12.8 °C 46 °F /  7.8 °C 30.17in /  1021.6hPa Calm     71.3% 0.00in /  0mm 0 W/m2
05:19 55 °F /  12.8 °C 46.1 °F /  7.8 °C 30.17in /  1021.6hPa Calm     72% 0.00in /  0mm 0 W/m2
05:24 54.9 °F /  12.7 °C 46 °F /  7.8 °C 30.18in /  1021.9hPa Calm     72% 0.00in /  0mm 0 W/m2
05:29 54.8 °F /  12.7 °C 46 °F /  7.8 °C 30.18in /  1021.9hPa Calm     72% 0.00in /  0mm 7 W/m2
05:34 54.7 °F /  12.6 °C 45.9 °F /  7.7 °C 30.18in /  1021.9hPa Calm     72% 0.00in /  0mm 11 W/m2
05:39 54.7 °F /  12.6 °C 45.9 °F /  7.7 °C 30.18in /  1021.9hPa Calm     72% 0.00in /  0mm 11 W/m2
05:44 54.7 °F /  12.6 °C 45.9 °F /  7.7 °C 30.18in /  1021.9hPa North 0.1mph /  0.2km/h 2mph /  3.2km/h 72% 0.00in /  0mm 12 W/m2
05:49 54.6 °F /  12.6 °C 45.8 °F /  7.7 °C 30.19in /  1022.2hPa Calm   2mph /  3.2km/h 72% 0.00in /  0mm 21 W/m2
05:54 54.6 °F /  12.6 °C 45.8 °F /  7.7 °C 30.19in /  1022.2hPa Calm   2mph /  3.2km/h 72% 0.00in /  0mm 28 W/m2
05:59 54.7 °F /  12.6 °C 45.8 °F /  7.7 °C 30.19in /  1022.2hPa Calm   2mph /  3.2km/h 72% 0.00in /  0mm 30 W/m2
06:04 54.7 °F /  12.6 °C 45.9 °F /  7.7 °C 30.19in /  1022.2hPa North 0.4mph /  0.6km/h 3mph /  4.8km/h 72% 0.00in /  0mm 35 W/m2
06:09 54.8 °F /  12.7 °C 46 °F /  7.8 °C 30.19in /  1022.2hPa North 0.5mph /  0.8km/h 4mph /  6.4km/h 72% 0.00in /  0mm 37 W/m2
06:14 55 °F /  12.8 °C 46 °F /  7.8 °C 30.20in /  1022.6hPa Calm   4mph /  6.4km/h 71.6% 0.00in /  0mm 37 W/m2
06:19 55.1 °F /  12.8 °C 45.9 °F /  7.7 °C 30.20in /  1022.6hPa North 0.3mph /  0.5km/h 5mph /  8km/h 71.2% 0.00in /  0mm 40 W/m2
06:24 55.3 °F /  12.9 °C 46 °F /  7.8 °C 30.20in /  1022.6hPa Calm   5mph /  8km/h 71% 0.00in /  0mm 40 W/m2
06:29 55.4 °F /  13 °C 45.9 °F /  7.7 °C 30.20in /  1022.6hPa Calm   5mph /  8km/h 70.2% 0.00in /  0mm 39 W/m2
06:34 55.5 °F /  13.1 °C 45.9 °F /  7.7 °C 30.21in /  1022.9hPa Calm   5mph /  8km/h 69.9% 0.00in /  0mm 42 W/m2
06:39 55.5 °F /  13.1 °C 45.6 °F /  7.6 °C 30.22in /  1023.2hPa NNW 0.5mph /  0.8km/h 4mph /  6.4km/h 69.2% 0.00in /  0mm 44 W/m2
06:44 55.6 °F /  13.1 °C 45.8 °F /  7.7 °C 30.22in /  1023.2hPa ENE 0.4mph /  0.6km/h 4mph /  6.4km/h 69.5% 0.00in /  0mm 53 W/m2
06:49 55.7 °F /  13.2 °C 45.8 °F /  7.7 °C 30.22in /  1023.2hPa ENE 0.5mph /  0.8km/h 4mph /  6.4km/h 69.1% 0.00in /  0mm 100 W/m2
06:54 56 °F /  13.3 °C 46.5 °F /  8.1 °C 30.23in /  1023.6hPa Calm   4mph /  6.4km/h 70.1% 0.00in /  0mm 100 W/m2
06:59 56.5 °F /  13.6 °C 46.6 °F /  8.1 °C 30.23in /  1023.6hPa ENE 0.6mph /  1km/h 5mph /  8km/h 69.2% 0.00in /  0mm 90 W/m2
07:04 56.8 °F /  13.8 °C 46.5 °F /  8.1 °C 30.24in /  1023.9hPa Calm   5mph /  8km/h 68.3% 0.00in /  0mm 86 W/m2
07:09 56.9 °F /  13.8 °C 46.6 °F /  8.1 °C 30.24in /  1023.9hPa Calm   1mph /  1.6km/h 68.4% 0.00in /  0mm 90 W/m2
07:14 57 °F /  13.9 °C 46.6 °F /  8.1 °C 30.24in /  1023.9hPa NNE 0.4mph /  0.6km/h 4mph /  6.4km/h 68.2% 0.00in /  0mm 202 W/m2
07:19 57.4 °F /  14.1 °C 47.2 °F /  8.4 °C 30.24in /  1023.9hPa NNE 0.2mph /  0.3km/h 4mph /  6.4km/h 68.7% 0.00in /  0mm 352 W/m2
07:24 58.2 °F /  14.6 °C 47.8 °F /  8.8 °C 30.24in /  1023.9hPa East 0.8mph /  1.3km/h 5mph /  8km/h 68.1% 0.00in /  0mm 360 W/m2
07:29 59 °F /  15 °C 47.5 °F /  8.6 °C 30.24in /  1023.9hPa ENE 0.7mph /  1.1km/h 6mph /  9.7km/h 65.5% 0.00in /  0mm 385 W/m2
07:34 59.7 °F /  15.4 °C 48.2 °F /  9 °C 30.25in /  1024.3hPa NE 0.1mph /  0.2km/h 6mph /  9.7km/h 65.6% 0.00in /  0mm 387 W/m2
07:39 60.5 °F /  15.8 °C 47.9 °F /  8.8 °C 30.25in /  1024.3hPa ENE 1.5mph /  2.4km/h 6mph /  9.7km/h 63.2% 0.00in /  0mm 330 W/m2
07:44 60.7 °F /  15.9 °C 47.6 °F /  8.7 °C 30.25in /  1024.3hPa ENE 0.4mph /  0.6km/h 6mph /  9.7km/h 61.8% 0.00in /  0mm 410 W/m2
07:49 61 °F /  16.1 °C 48.1 °F /  8.9 °C 30.25in /  1024.3hPa Calm   6mph /  9.7km/h 62.4% 0.00in /  0mm 452 W/m2
07:54 61.6 °F /  16.4 °C 49 °F /  9.4 °C 30.25in /  1024.3hPa ENE 0.1mph /  0.2km/h 6mph /  9.7km/h 63.3% 0.00in /  0mm 480 W/m2
07:59 62.4 °F /  16.9 °C 49 °F /  9.4 °C 30.25in /  1024.3hPa NE 0.1mph /  0.2km/h 6mph /  9.7km/h 61.6% 0.00in /  0mm 482 W/m2
08:00 62.7 °F /  17.1 °C 48.2 °F /  9 °C 30.25in /  1024.3hPa Calm   6mph /  9.7km/h 59% 0.00in /  0mm 443 W/m2
08:09 62.8 °F /  17.1 °C 48.3 °F /  9.1 °C 30.25in /  1024.3hPa Calm     59.1% 0.00in /  0mm 207 W/m2
08:14 62.6 °F /  17 °C 48.3 °F /  9.1 °C 30.26in /  1024.6hPa ENE 0.5mph /  0.8km/h 4mph /  6.4km/h 59.3% 0.00in /  0mm 199 W/m2
08:19 62.5 °F /  16.9 °C 48.4 °F /  9.1 °C 30.26in /  1024.6hPa Calm   4mph /  6.4km/h 60% 0.00in /  0mm 383 W/m2
08:24 62.5 °F /  16.9 °C 47.9 °F /  8.8 °C 30.26in /  1024.6hPa Calm   4mph /  6.4km/h 58.9% 0.00in /  0mm 559 W/m2
08:29 62.5 °F /  16.9 °C 47.9 °F /  8.8 °C 30.26in /  1024.6hPa Calm   4mph /  6.4km/h 58.9% 0.00in /  0mm 559 W/m2
08:34 62.5 °F /  16.9 °C 48.2 °F /  9 °C 30.26in /  1024.6hPa Calm   4mph /  6.4km/h 59.5% 0.00in /  0mm 336 W/m2
08:39 62.5 °F /  16.9 °C 47.3 °F /  8.5 °C 30.27in /  1024.9hPa Calm     57.4% 0.00in /  0mm 288 W/m2
08:44 62.5 °F /  16.9 °C 47.8 °F /  8.8 °C 30.27in /  1024.9hPa Calm   1mph /  1.6km/h 58.6% 0.00in /  0mm 536 W/m2
08:49 62.5 °F /  16.9 °C 48.2 °F /  9 °C 30.27in /  1024.9hPa Calm   1mph /  1.6km/h 59.4% 0.00in /  0mm 536 W/m2
08:54 62.8 °F /  17.1 °C 48.7 °F /  9.3 °C 30.28in /  1025.3hPa ENE 0.2mph /  0.3km/h 3mph /  4.8km/h 59.8% 0.00in /  0mm 663 W/m2
08:59 63.6 °F /  17.6 °C 48.9 °F /  9.4 °C 30.28in /  1025.3hPa South 0.2mph /  0.3km/h 4mph /  6.4km/h 58.7% 0.00in /  0mm 527 W/m2
09:04 64.5 °F /  18.1 °C 50 °F /  10 °C 30.28in /  1025.3hPa Calm   4mph /  6.4km/h 59.2% 0.00in /  0mm 719 W/m2
09:09 65.6 °F /  18.7 °C 50.2 °F /  10.1 °C 30.28in /  1025.3hPa Calm   1mph /  1.6km/h 57.6% 0.00in /  0mm 719 W/m2
09:14 66.2 °F /  19 °C 50 °F /  10 °C 30.27in /  1024.9hPa South 0.3mph /  0.5km/h 5mph /  8km/h 55.8% 0.00in /  0mm 703 W/m2
09:19 66.2 °F /  19 °C 49 °F /  9.4 °C 30.27in /  1024.9hPa South 0.2mph /  0.3km/h 5mph /  8km/h 54% 0.00in /  0mm 679 W/m2
09:24 66 °F /  18.9 °C 49.5 °F /  9.7 °C 30.27in /  1024.9hPa Calm   5mph /  8km/h 55.1% 0.00in /  0mm 791 W/m2
09:29 66.6 °F /  19.2 °C 50.6 °F /  10.3 °C 30.27in /  1024.9hPa Calm   5mph /  8km/h 56.5% 0.00in /  0mm 779 W/m2
09:34 67.5 °F /  19.7 °C 51 °F /  10.6 °C 30.27in /  1024.9hPa Calm   5mph /  8km/h 55.5% 0.00in /  0mm 817 W/m2
09:39 68.1 °F /  20.1 °C 50.5 °F /  10.3 °C 30.27in /  1024.9hPa SSE 0.3mph /  0.5km/h 3mph /  4.8km/h 53.4% 0.00in /  0mm 817 W/m2
09:44 67.9 °F /  19.9 °C 48.2 °F /  9 °C 30.27in /  1024.9hPa SSE 0.1mph /  0.2km/h 3mph /  4.8km/h 49.2% 0.00in /  0mm 809 W/m2
09:49 67.4 °F /  19.7 °C 48.7 °F /  9.3 °C 30.27in /  1024.9hPa Calm   3mph /  4.8km/h 51.2% 0.00in /  0mm 838 W/m2
09:54 67.6 °F /  19.8 °C 49.9 °F /  9.9 °C 30.27in /  1024.9hPa Calm   3mph /  4.8km/h 53.1% 0.00in /  0mm 838 W/m2
09:59 67.6 °F /  19.8 °C 50 °F /  10 °C 30.27in /  1024.9hPa Calm   3mph /  4.8km/h 53.1% 0.00in /  0mm 362 W/m2
10:04 67.3 °F /  19.6 °C 50.3 °F /  10.2 °C 30.27in /  1024.9hPa Calm   3mph /  4.8km/h 54.3% 0.00in /  0mm 362 W/m2
10:09 67.3 °F /  19.6 °C 50.7 °F /  10.4 °C 30.27in /  1024.9hPa SSE 0.1mph /  0.2km/h 2mph /  3.2km/h 55.3% 0.00in /  0mm 858 W/m2
10:14 67.7 °F /  19.8 °C 51.1 °F /  10.6 °C 30.27in /  1024.9hPa South 0.6mph /  1km/h 4mph /  6.4km/h 55.3% 0.00in /  0mm 831 W/m2
10:19 68.4 °F /  20.2 °C 51.1 °F /  10.6 °C 30.27in /  1024.9hPa Calm   4mph /  6.4km/h 54% 0.00in /  0mm 872 W/m2
10:24 68.6 °F /  20.3 °C 49.9 °F /  9.9 °C 30.27in /  1024.9hPa Calm   4mph /  6.4km/h 51.3% 0.00in /  0mm 958 W/m2
10:29 68.8 °F /  20.4 °C 49.5 °F /  9.7 °C 30.27in /  1024.9hPa South 0.1mph /  0.2km/h 4mph /  6.4km/h 50.2% 0.00in /  0mm 969 W/m2
10:34 68.8 °F /  20.4 °C 49.6 °F /  9.8 °C 30.27in /  1024.9hPa SSW 0.2mph /  0.3km/h 4mph /  6.4km/h 50.4% 0.00in /  0mm 960 W/m2
10:39 68.8 °F /  20.4 °C 49.7 °F /  9.8 °C 30.27in /  1024.9hPa SSW 0.1mph /  0.2km/h 3mph /  4.8km/h 50.6% 0.00in /  0mm 935 W/m2
10:44 68.5 °F /  20.3 °C 49.1 °F /  9.5 °C 30.28in /  1025.3hPa Calm   3mph /  4.8km/h 49.8% 0.00in /  0mm 394 W/m2
10:49 67.8 °F /  19.9 °C 48.8 °F /  9.3 °C 30.28in /  1025.3hPa Calm   3mph /  4.8km/h 50.4% 0.00in /  0mm 469 W/m2
10:54 67.6 °F /  19.8 °C 49.4 °F /  9.7 °C 30.28in /  1025.3hPa Calm   3mph /  4.8km/h 52.2% 0.00in /  0mm 1160 W/m2
10:59 68.1 °F /  20.1 °C 50.5 °F /  10.3 °C 30.28in /  1025.3hPa SW 0.4mph /  0.6km/h 5mph /  8km/h 53.2% 0.00in /  0mm 810 W/m2
11:04 68.8 °F /  20.4 °C 49.9 °F /  9.9 °C 30.28in /  1025.3hPa SW 0.7mph /  1.1km/h 5mph /  8km/h 50.9% 0.00in /  0mm 810 W/m2
11:09 69.5 °F /  20.8 °C 50.4 °F /  10.2 °C 30.28in /  1025.3hPa Calm   4mph /  6.4km/h 50.7% 0.00in /  0mm 810 W/m2
11:14 70 °F /  21.1 °C 49.9 °F /  9.9 °C 30.27in /  1024.9hPa Calm   4mph /  6.4km/h 48.8% 0.00in /  0mm 524 W/m2
11:19 70.4 °F /  21.3 °C 49.9 °F /  9.9 °C 30.27in /  1024.9hPa SW 0.2mph /  0.3km/h 4mph /  6.4km/h 48.3% 0.00in /  0mm 761 W/m2
11:24 70.4 °F /  21.3 °C 48.1 °F /  8.9 °C 30.27in /  1024.9hPa SW 0.3mph /  0.5km/h 4mph /  6.4km/h 45% 0.00in /  0mm 761 W/m2
11:29 70 °F /  21.1 °C 47.6 °F /  8.7 °C 30.27in /  1024.9hPa SW 0.2mph /  0.3km/h 4mph /  6.4km/h 44.9% 0.00in /  0mm 571 W/m2
11:34 69.3 °F /  20.7 °C 48.4 °F /  9.1 °C 30.27in /  1024.9hPa SSE 0.6mph /  1km/h 4mph /  6.4km/h 47.2% 0.00in /  0mm 506 W/m2
11:39 68.7 °F /  20.4 °C 48.1 °F /  8.9 °C 30.27in /  1024.9hPa SSE 0.4mph /  0.6km/h 4mph /  6.4km/h 47.7% 0.00in /  0mm 1241 W/m2
11:44 68.8 °F /  20.4 °C 49.7 °F /  9.8 °C 30.27in /  1024.9hPa SSE 0.6mph /  1km/h 4mph /  6.4km/h 50.4% 0.00in /  0mm 1178 W/m2
11:49 69.2 °F /  20.7 °C 48.1 °F /  8.9 °C 30.27in /  1024.9hPa SE 0.1mph /  0.2km/h 4mph /  6.4km/h 47% 0.00in /  0mm 1178 W/m2
11:54 68.9 °F /  20.5 °C 47.9 °F /  8.8 °C 30.27in /  1024.9hPa Calm   4mph /  6.4km/h 47% 0.00in /  0mm 371 W/m2
11:59 68.6 °F /  20.3 °C 48.7 °F /  9.3 °C 30.27in /  1024.9hPa SSE 0.4mph /  0.6km/h 6mph /  9.7km/h 48.9% 0.00in /  0mm 599 W/m2
12:04 68.6 °F /  20.3 °C 49.2 °F /  9.6 °C 30.26in /  1024.6hPa Calm   6mph /  9.7km/h 50% 0.00in /  0mm 599 W/m2
12:09 68.6 °F /  20.3 °C 49.6 °F /  9.8 °C 30.27in /  1024.9hPa SW 0.2mph /  0.3km/h 5mph /  8km/h 50.7% 0.00in /  0mm 944 W/m2
12:14 68.5 °F /  20.3 °C 48.8 °F /  9.3 °C 30.26in /  1024.6hPa South 1.2mph /  1.9km/h 5mph /  8km/h 49.4% 0.00in /  0mm 1083 W/m2
12:19 68.2 °F /  20.1 °C 48.8 °F /  9.3 °C 30.27in /  1024.9hPa South 0.1mph /  0.2km/h 5mph /  8km/h 49.8% 0.00in /  0mm 1058 W/m2
12:24 68.3 °F /  20.2 °C 50.3 °F /  10.2 °C 30.27in /  1024.9hPa South 0.2mph /  0.3km/h 5mph /  8km/h 52.5% 0.00in /  0mm 1172 W/m2
12:29 68.9 °F /  20.5 °C 49.5 °F /  9.7 °C 30.26in /  1024.6hPa SSW 0.5mph /  0.8km/h 5mph /  8km/h 50% 0.00in /  0mm 1042 W/m2
12:34 69 °F /  20.6 °C 48.4 °F /  9.1 °C 30.26in /  1024.6hPa SSW 0.1mph /  0.2km/h 5mph /  8km/h 47.8% 0.00in /  0mm 392 W/m2
12:39 68.6 °F /  20.3 °C 49.4 °F /  9.7 °C 30.26in /  1024.6hPa South 0.1mph /  0.2km/h 2mph /  3.2km/h 50.3% 0.00in /  0mm 1072 W/m2
12:44 68.9 °F /  20.5 °C 50.6 °F /  10.3 °C 30.25in /  1024.3hPa SSW 0.6mph /  1km/h 5mph /  8km/h 52% 0.00in /  0mm 1072 W/m2
12:49 69.7 °F /  20.9 °C 50.5 °F /  10.3 °C 30.25in /  1024.3hPa WSW 1.1mph /  1.8km/h 5mph /  8km/h 50.4% 0.00in /  0mm 1000 W/m2
12:54 70.5 °F /  21.4 °C 49.4 °F /  9.7 °C 30.25in /  1024.3hPa WSW 0.5mph /  0.8km/h 6mph /  9.7km/h 47.1% 0.00in /  0mm 1013 W/m2
12:59 70.5 °F /  21.4 °C 48.7 °F /  9.3 °C 30.25in /  1024.3hPa WSW 0.3mph /  0.5km/h 6mph /  9.7km/h 46.1% 0.00in /  0mm 1238 W/m2
13:04 70.7 °F /  21.5 °C 50.3 °F /  10.2 °C 30.25in /  1024.3hPa West 0.4mph /  0.6km/h 6mph /  9.7km/h 48.5% 0.00in /  0mm 1150 W/m2
13:09 70.8 °F /  21.6 °C 48.9 °F /  9.4 °C 30.25in /  1024.3hPa WSW 1.4mph /  2.3km/h 10mph /  16.1km/h 45.8% 0.00in /  0mm 390 W/m2
13:14 70.6 °F /  21.4 °C 49.5 °F /  9.7 °C 30.25in /  1024.3hPa SW 0.7mph /  1.1km/h 10mph /  16.1km/h 47% 0.00in /  0mm 427 W/m2
13:19 70.7 °F /  21.5 °C 49.4 °F /  9.7 °C 30.25in /  1024.3hPa SW 0.8mph /  1.3km/h 10mph /  16.1km/h 46.9% 0.00in /  0mm 1318 W/m2
13:24 71 °F /  21.7 °C 49 °F /  9.4 °C 30.25in /  1024.3hPa WSW 2mph /  3.2km/h 10mph /  16.1km/h 45.8% 0.00in /  0mm 1318 W/m2
13:29 71 °F /  21.7 °C 48.5 °F /  9.2 °C 30.25in /  1024.3hPa WSW 1.3mph /  2.1km/h 10mph /  16.1km/h 44.8% 0.00in /  0mm 436 W/m2
13:34 70.8 °F /  21.6 °C 48.2 °F /  9 °C 30.24in /  1023.9hPa SW 1.4mph /  2.3km/h 10mph /  16.1km/h 44.7% 0.00in /  0mm 1236 W/m2
13:39 71 °F /  21.7 °C 48.6 °F /  9.2 °C 30.24in /  1023.9hPa SW 1.7mph /  2.7km/h 7mph /  11.3km/h 45% 0.00in /  0mm 1262 W/m2
13:44 71.4 °F /  21.9 °C 47.9 °F /  8.8 °C 30.24in /  1023.9hPa SSW 1mph /  1.6km/h 7mph /  11.3km/h 43.3% 0.00in /  0mm 1160 W/m2
13:49 71.3 °F /  21.8 °C 47.8 °F /  8.8 °C 30.24in /  1023.9hPa SW 0.8mph /  1.3km/h 7mph /  11.3km/h 43.3% 0.00in /  0mm 1120 W/m2
13:54 71.3 °F /  21.8 °C 48 °F /  8.9 °C 30.24in /  1023.9hPa WSW 0.4mph /  0.6km/h 7mph /  11.3km/h 43.6% 0.00in /  0mm 1067 W/m2
13:59 71.5 °F /  21.9 °C 47.9 °F /  8.8 °C 30.23in /  1023.6hPa WSW 0.6mph /  1km/h 7mph /  11.3km/h 43.1% 0.00in /  0mm 1044 W/m2
14:04 71.7 °F /  22.1 °C 48.4 °F /  9.1 °C 30.23in /  1023.6hPa SW 0.6mph /  1km/h 7mph /  11.3km/h 43.6% 0.00in /  0mm 1074 W/m2
14:09 71.9 °F /  22.2 °C 48.2 °F /  9 °C 30.23in /  1023.6hPa SW 0.6mph /  1km/h 5mph /  8km/h 43% 0.00in /  0mm 1099 W/m2
14:14 71.8 °F /  22.1 °C 47.5 °F /  8.6 °C 30.24in /  1023.9hPa SW 1.5mph /  2.4km/h 9mph /  14.5km/h 42% 0.00in /  0mm 1099 W/m2
14:19 71.6 °F /  22 °C 46.8 °F /  8.2 °C 30.23in /  1023.6hPa South 0.5mph /  0.8km/h 9mph /  14.5km/h 41.2% 0.00in /  0mm 513 W/m2
14:24 71.3 °F /  21.8 °C 46.9 °F /  8.3 °C 30.23in /  1023.6hPa ESE 0.6mph /  1km/h 9mph /  14.5km/h 41.9% 0.00in /  0mm 629 W/m2
14:29 70.7 °F /  21.5 °C 47.1 °F /  8.4 °C 30.23in /  1023.6hPa ESE 0.4mph /  0.6km/h 9mph /  14.5km/h 43% 0.00in /  0mm 1085 W/m2
14:34 70.5 °F /  21.4 °C 47.6 °F /  8.7 °C 30.23in /  1023.6hPa South 0.2mph /  0.3km/h 9mph /  14.5km/h 44.1% 0.00in /  0mm 1129 W/m2
14:39 70.6 °F /  21.4 °C 46.9 °F /  8.3 °C 30.23in /  1023.6hPa SSW 0.5mph /  0.8km/h 4mph /  6.4km/h 42.9% 0.00in /  0mm 1129 W/m2
14:44 70.5 °F /  21.4 °C 47.2 °F /  8.4 °C 30.23in /  1023.6hPa SW 0.3mph /  0.5km/h 4mph /  6.4km/h 43.4% 0.00in /  0mm 1123 W/m2
14:49 70.4 °F /  21.3 °C 46.5 °F /  8.1 °C 30.23in /  1023.6hPa South 1mph /  1.6km/h 5mph /  8km/h 42.5% 0.00in /  0mm 1123 W/m2
14:54 70.1 °F /  21.2 °C 46.6 °F /  8.1 °C 30.22in /  1023.2hPa South 0.4mph /  0.6km/h 5mph /  8km/h 43.1% 0.00in /  0mm 1049 W/m2
14:59 70 °F /  21.1 °C 46.7 °F /  8.2 °C 30.22in /  1023.2hPa South 0.5mph /  0.8km/h 5mph /  8km/h 43.3% 0.00in /  0mm 958 W/m2
15:04 69.8 °F /  21 °C 46.8 °F /  8.2 °C 30.22in /  1023.2hPa South 0.6mph /  1km/h 5mph /  8km/h 43.9% 0.00in /  0mm 1002 W/m2
15:09 69.9 °F /  21.1 °C 47.8 °F /  8.8 °C 30.22in /  1023.2hPa SSW 0.8mph /  1.3km/h 5mph /  8km/h 45.3% 0.00in /  0mm 1002 W/m2
15:14 70.4 °F /  21.3 °C 47 °F /  8.3 °C 30.22in /  1023.2hPa SSW 1.3mph /  2.1km/h 5mph /  8km/h 43.3% 0.00in /  0mm 932 W/m2
15:19 70.5 °F /  21.4 °C 47 °F /  8.3 °C 30.22in /  1023.2hPa SSW 0.2mph /  0.3km/h 5mph /  8km/h 43% 0.00in /  0mm 886 W/m2
15:24 70.5 °F /  21.4 °C 47.5 °F /  8.6 °C 30.22in /  1023.2hPa South 0.8mph /  1.3km/h 5mph /  8km/h 43.9% 0.00in /  0mm 886 W/m2
15:29 70.8 °F /  21.6 °C 48.1 °F /  8.9 °C 30.22in /  1023.2hPa SW 1.7mph /  2.7km/h 10mph /  16.1km/h 44.4% 0.00in /  0mm 854 W/m2
15:34 71.2 °F /  21.8 °C 47.7 °F /  8.7 °C 30.22in /  1023.2hPa WSW 1mph /  1.6km/h 10mph /  16.1km/h 43.2% 0.00in /  0mm 833 W/m2
15:39 71.1 °F /  21.7 °C 47.5 °F /  8.6 °C 30.21in /  1022.9hPa SSW 0.7mph /  1.1km/h 10mph /  16.1km/h 43% 0.00in /  0mm 828 W/m2
15:44 70.9 °F /  21.6 °C 47.7 °F /  8.7 °C 30.21in /  1022.9hPa South 0.3mph /  0.5km/h 10mph /  16.1km/h 43.6% 0.00in /  0mm 858 W/m2
15:49 71 °F /  21.7 °C 48.4 °F /  9.1 °C 30.21in /  1022.9hPa SSW 1mph /  1.6km/h 10mph /  16.1km/h 44.6% 0.00in /  0mm 824 W/m2
15:54 71.2 °F /  21.8 °C 48.6 °F /  9.2 °C 30.21in /  1022.9hPa SW 0.8mph /  1.3km/h 10mph /  16.1km/h 44.6% 0.00in /  0mm 912 W/m2
15:59 71.5 °F /  21.9 °C 48.1 °F /  8.9 °C 30.21in /  1022.9hPa WSW 0.9mph /  1.4km/h 10mph /  16.1km/h 43.3% 0.00in /  0mm 865 W/m2
16:00 71.5 °F /  21.9 °C 47.8 °F /  8.8 °C 30.21in /  1022.9hPa Calm   10mph /  16.1km/h 43% 0.00in /  0mm 865 W/m2
Hartford County Weather
Compliments of Weather Underground - 4 mb